Time;durP1;ratioP1;P1;durP2;ratioP2;P2;SDS_P1;SDS_P2;PMS_P1;PMS_P2;Temp;Humidity;BMP_temperature;BMP_pressure;BME280_temperature;BME280_humidity;BME280_pressure;Samples;Min_cycle;Max_cycle;Signal;HPM_P1;HPM_P2
2021/08/21 00:00:59;;;;;;;7.30;5.70;;;;;;;16.47;95.50;101157.80;111736;1202;71092;-83
2021/08/21 00:03:26;;;;;;;8.00;5.00;;;;;;;16.46;95.55;101157.43;111710;1201;72654;-83
2021/08/21 00:05:53;;;;;;;8.20;5.80;;;;;;;16.46;95.78;101154.91;111609;1201;60205;-80
2021/08/21 00:08:19;;;;;;;10.80;6.60;;;;;;;16.47;95.87;101155.74;111593;1196;60203;-82
2021/08/21 00:10:46;;;;;;;7.80;6.00;;;;;;;16.47;96.17;101155.17;111566;1199;74051;-81
2021/08/21 00:13:13;;;;;;;9.40;6.60;;;;;;;16.47;96.00;101154.21;111551;1201;72146;-81
2021/08/21 00:15:39;;;;;;;7.60;5.90;;;;;;;16.47;96.06;101153.80;111595;1201;72531;-81
2021/08/21 00:18:06;;;;;;;9.00;6.10;;;;;;;16.49;96.14;101152.39;111470;1195;61534;-82
2021/08/21 00:20:33;;;;;;;7.90;6.10;;;;;;;16.48;95.98;101150.88;111464;1201;61852;-81
2021/08/21 00:23:00;;;;;;;9.00;6.60;;;;;;;16.46;95.87;101152.77;111634;1201;75384;-81
2021/08/21 00:25:26;;;;;;;8.60;6.40;;;;;;;16.46;96.15;101147.41;111665;1201;60388;-83
2021/08/21 00:27:53;;;;;;;9.50;6.40;;;;;;;16.47;96.31;101139.80;111492;1201;60243;-81
2021/08/21 00:30:20;;;;;;;9.10;6.30;;;;;;;16.46;96.15;101134.85;111540;1201;62060;-81
2021/08/21 00:32:47;;;;;;;11.90;7.60;;;;;;;16.45;95.87;101137.58;111469;1204;60725;-83
2021/08/21 00:35:14;;;;;;;7.90;6.00;;;;;;;16.42;95.96;101134.94;111541;1200;74654;-81
2021/08/21 00:37:40;;;;;;;9.20;5.90;;;;;;;16.41;96.27;101137.56;111614;1201;72808;-82
2021/08/21 00:40:08;;;;;;;9.40;5.80;;;;;;;16.41;96.47;101136.66;111515;1200;73597;-81
2021/08/21 00:42:35;;;;;;;9.20;6.10;;;;;;;16.42;96.54;101142.97;111613;1195;62025;-82
2021/08/21 00:45:06;;;;;;;11.30;6.10;;;;;;;16.40;96.26;101139.78;111567;1201;60504;-81
2021/08/21 00:47:33;;;;;;;8.90;6.40;;;;;;;16.38;96.16;101138.53;111635;1195;74766;-80
2021/08/21 00:50:00;;;;;;;8.80;5.00;;;;;;;16.32;95.79;101135.89;111569;1195;72163;-82
2021/08/21 00:52:29;;;;;;;8.00;6.10;;;;;;;16.23;95.50;101139.15;111534;1198;72518;-82
2021/08/21 00:54:57;;;;;;;10.60;5.80;;;;;;;16.18;96.44;101137.41;111614;1201;61939;-80
2021/08/21 00:57:30;;;;;;;10.70;6.40;;;;;;;16.17;97.14;101128.94;111591;1195;60450;-81
2021/08/21 00:59:57;;;;;;;8.30;6.20;;;;;;;16.16;96.61;101131.52;111585;1196;74999;-81
2021/08/21 01:02:24;;;;;;;10.10;5.60;;;;;;;16.15;96.82;101134.04;111600;1195;70690;-80
2021/08/21 01:04:55;;;;;;;6.90;5.80;;;;;;;16.15;97.02;101133.62;111556;1195;73342;-81
2021/08/21 01:07:27;;;;;;;8.30;5.70;;;;;;;16.15;96.94;101130.81;111563;1202;64215;-82
2021/08/21 01:09:54;;;;;;;9.20;5.70;;;;;;;16.15;96.70;101130.33;111622;1194;60246;-82
2021/08/21 01:12:22;;;;;;;7.80;6.00;;;;;;;16.12;96.67;101129.23;111660;1201;74651;-80
2021/08/21 01:14:50;;;;;;;9.10;6.20;;;;;;;16.08;96.67;101128.27;111548;1201;71329;-83
2021/08/21 01:17:18;;;;;;;7.60;6.20;;;;;;;16.04;96.62;101128.27;111656;1202;74023;-81
2021/08/21 01:19:47;;;;;;;8.10;6.40;;;;;;;16.01;97.02;101124.71;111714;1201;61749;-81
2021/08/21 01:22:17;;;;;;;7.40;5.80;;;;;;;16.00;96.78;101124.77;111744;1200;60815;-82
2021/08/21 01:24:46;;;;;;;10.30;5.90;;;;;;;15.96;96.81;101124.61;111651;1195;74835;-82
2021/08/21 01:27:21;;;;;;;9.70;6.90;;;;;;;15.94;97.28;101128.42;111705;1201;70866;-80
2021/08/21 01:29:49;;;;;;;10.80;6.20;;;;;;;15.93;97.58;101126.86;111542;1195;73851;-82
2021/08/21 01:32:17;;;;;;;9.30;6.70;;;;;;;15.90;97.52;101130.06;111596;1201;61650;-81
2021/08/21 01:34:44;;;;;;;7.50;6.10;;;;;;;15.89;97.42;101128.73;111707;1195;60238;-81
2021/08/21 01:37:11;;;;;;;9.30;5.80;;;;;;;15.87;97.36;101136.02;111625;1202;75029;-81
2021/08/21 01:39:37;;;;;;;7.50;5.50;;;;;;;15.86;97.86;101137.95;111641;1201;71172;-82
2021/08/21 01:42:04;;;;;;;7.90;5.60;;;;;;;15.81;97.69;101136.41;111554;1201;73943;-80
2021/08/21 01:44:31;;;;;;;13.10;6.00;;;;;;;15.76;97.62;101136.67;111625;1201;62327;-81
2021/08/21 01:46:57;;;;;;;7.20;5.50;;;;;;;15.69;97.33;101134.38;111472;1202;61308;-80
2021/08/21 01:49:24;;;;;;;8.70;6.50;;;;;;;15.64;97.77;101140.45;111523;1195;73798;-82
2021/08/21 01:51:51;;;;;;;7.70;5.20;;;;;;;15.60;97.93;101139.88;111701;1202;71921;-81
2021/08/21 01:54:22;;;;;;;10.40;6.10;;;;;;;15.56;98.19;101143.94;111564;1201;73703;-80
2021/08/21 01:56:55;;;;;;;7.60;5.30;;;;;;;15.55;99.05;101148.48;111487;1201;62889;-80
2021/08/21 01:59:35;;;;;;;9.80;5.90;;;;;;;15.56;99.28;101150.52;111718;1201;61038;-81
2021/08/21 02:02:05;;;;;;;7.60;5.50;;;;;;;15.57;99.44;101147.39;111482;1203;73474;-81
2021/08/21 02:04:32;;;;;;;12.70;6.10;;;;;;;15.57;98.85;101144.69;111593;1201;72015;-80
2021/08/21 02:06:59;;;;;;;7.60;5.60;;;;;;;15.55;98.68;101144.80;111544;1201;72666;-81
2021/08/21 02:09:27;;;;;;;8.00;5.60;;;;;;;15.53;98.43;101145.80;111470;1195;60339;-82
2021/08/21 02:11:56;;;;;;;7.30;5.60;;;;;;;15.50;98.82;101148.88;111701;1200;60609;-82
2021/08/21 02:14:24;;;;;;;9.00;6.00;;;;;;;15.49;98.73;101148.54;111704;1201;74769;-81
2021/08/21 02:16:54;;;;;;;8.10;5.80;;;;;;;15.46;98.51;101144.83;111605;1201;71374;-81
2021/08/21 02:19:21;;;;;;;7.70;5.50;;;;;;;15.46;98.95;101143.58;111620;1200;72518;-81
2021/08/21 02:21:49;;;;;;;9.80;6.10;;;;;;;15.45;98.80;101146.05;111572;1201;61778;-82
2021/08/21 02:24:18;;;;;;;9.70;6.30;;;;;;;15.43;99.12;101143.36;112044;1201;60255;-81
2021/08/21 02:26:45;;;;;;;8.70;6.20;;;;;;;15.45;99.35;101148.27;111859;1200;74751;-82
2021/08/21 02:29:13;;;;;;;10.20;6.70;;;;;;;15.47;99.59;101150.34;111688;1201;71580;-82
2021/08/21 02:31:39;;;;;;;11.90;7.40;;;;;;;15.51;99.97;101153.69;111635;1195;73669;-81
2021/08/21 02:34:06;;;;;;;8.60;7.20;;;;;;;15.54;99.90;101152.80;111447;1202;61883;-82
2021/08/21 02:36:33;;;;;;;9.60;6.20;;;;;;;15.55;99.69;101148.50;111654;1201;60248;-82
2021/08/21 02:39:01;;;;;;;10.00;5.90;;;;;;;15.55;99.36;101150.84;111577;1200;73715;-82
2021/08/21 02:41:27;;;;;;;10.60;7.00;;;;;;;15.53;99.13;101151.41;111737;1193;71248;-82
2021/08/21 02:43:54;;;;;;;10.40;6.60;;;;;;;15.53;99.70;101149.52;111619;1201;72572;-81
2021/08/21 02:46:21;;;;;;;8.10;6.20;;;;;;;15.56;99.92;101150.60;111642;1201;62731;-82
2021/08/21 02:48:48;;;;;;;9.10;6.50;;;;;;;15.58;99.84;101152.79;111502;1202;60877;-82
2021/08/21 02:51:15;;;;;;;13.60;7.00;;;;;;;15.60;99.67;101159.17;111619;1195;73890;-82
2021/08/21 02:53:41;;;;;;;8.70;6.40;;;;;;;15.62;99.71;101156.35;111480;1201;60263;-81
2021/08/21 02:56:08;;;;;;;8.00;6.50;;;;;;;15.62;99.43;101157.91;111538;1195;74666;-80
2021/08/21 02:58:34;;;;;;;10.20;6.80;;;;;;;15.63;99.74;101157.59;111634;1194;60274;-81
2021/08/21 03:01:05;;;;;;;14.60;7.20;;;;;;;15.64;99.66;101156.04;111523;1202;61216;-81
2021/08/21 03:03:32;;;;;;;9.30;7.10;;;;;;;15.67;99.91;101162.72;111525;1201;74693;-81
2021/08/21 03:05:58;;;;;;;8.80;6.30;;;;;;;15.67;99.72;101159.30;111634;1201;72020;-82
2021/08/21 03:08:25;;;;;;;9.00;6.80;;;;;;;15.68;99.76;101158.23;111505;1201;73552;-81
2021/08/21 03:10:51;;;;;;;10.90;6.30;;;;;;;15.67;99.63;101156.79;111713;1201;61980;-82
2021/08/21 03:13:18;;;;;;;7.80;6.30;;;;;;;15.66;99.59;101153.48;111562;1201;60255;-83
2021/08/21 03:15:44;;;;;;;11.70;7.10;;;;;;;15.67;99.90;101151.94;111626;1201;60272;-82
2021/08/21 03:18:11;;;;;;;9.00;5.90;;;;;;;15.66;99.72;101152.96;111542;1201;72194;-81
2021/08/21 03:20:38;;;;;;;8.90;6.10;;;;;;;15.64;99.58;101157.88;111605;1195;72801;-83
2021/08/21 03:23:04;;;;;;;13.40;6.40;;;;;;;15.58;99.16;101159.95;111575;1201;60424;-83
2021/08/21 03:25:31;;;;;;;8.60;5.30;;;;;;;15.53;99.29;101164.11;111636;1201;60292;-82
2021/08/21 03:27:57;;;;;;;10.40;6.70;;;;;;;15.48;99.10;101168.11;111560;1201;73683;-81
2021/08/21 03:30:24;;;;;;;8.50;6.20;;;;;;;15.41;98.99;101167.17;111533;1201;60437;-82
2021/08/21 03:32:50;;;;;;;8.00;5.30;;;;;;;15.33;98.98;101168.38;111455;1195;72586;-81
2021/08/21 03:35:17;;;;;;;10.60;6.40;;;;;;;15.27;99.13;101170.23;111476;1195;60307;-82
2021/08/21 03:37:44;;;;;;;11.60;5.90;;;;;;;15.21;99.66;101167.71;111432;1195;60276;-81
2021/08/21 03:40:11;;;;;;;11.30;6.40;;;;;;;15.19;99.90;101167.04;111381;1201;60310;-81
2021/08/21 03:42:38;;;;;;;11.90;6.80;;;;;;;15.16;99.91;101168.55;111611;1195;72425;-82
2021/08/21 03:45:05;;;;;;;12.20;6.70;;;;;;;15.14;99.99;101174.73;111325;1194;74646;-82
2021/08/21 03:47:32;;;;;;;8.40;6.20;;;;;;;15.12;99.99;101173.73;111442;1202;61893;-82
2021/08/21 03:49:58;;;;;;;13.20;6.90;;;;;;;15.10;99.96;101176.84;111431;1202;61555;-81
2021/08/21 03:52:25;;;;;;;14.10;7.80;;;;;;;15.06;99.76;101174.83;111435;1201;60370;-82
2021/08/21 03:54:51;;;;;;;10.60;6.80;;;;;;;15.00;99.62;101169.27;111368;1195;71142;-81
2021/08/21 03:57:18;;;;;;;13.60;7.40;;;;;;;14.97;99.68;101167.23;111398;1201;60304;-81
2021/08/21 03:59:44;;;;;;;14.70;8.30;;;;;;;14.93;99.74;101165.23;111439;1195;60278;-81
2021/08/21 04:02:11;;;;;;;10.70;7.70;;;;;;;14.88;99.53;101163.48;111436;1195;60323;-81
2021/08/21 04:04:38;;;;;;;10.70;6.50;;;;;;;14.84;99.91;101161.86;111429;1201;74102;-82
2021/08/21 04:07:04;;;;;;;10.20;6.60;;;;;;;14.81;99.99;101164.42;111445;1201;60140;-81
2021/08/21 04:09:31;;;;;;;9.30;6.60;;;;;;;14.81;100.00;101161.20;111358;1195;60294;-80
2021/08/21 04:11:57;;;;;;;9.30;7.30;;;;;;;14.80;100.00;101164.03;111488;1195;60847;-80
2021/08/21 04:14:24;;;;;;;10.10;6.60;;;;;;;14.77;100.00;101165.77;111556;1201;60253;-81
2021/08/21 04:16:50;;;;;;;9.10;6.70;;;;;;;14.71;100.00;101164.08;111521;1196;61584;-82
2021/08/21 04:19:17;;;;;;;9.70;7.40;;;;;;;14.68;100.00;101166.39;111515;1201;60186;-82
2021/08/21 04:21:43;;;;;;;8.50;6.40;;;;;;;14.69;100.00;101161.48;111637;1201;60311;-81
2021/08/21 04:24:10;;;;;;;10.70;6.90;;;;;;;14.67;100.00;101167.87;111434;1195;60252;-81
2021/08/21 04:26:36;;;;;;;9.90;6.90;;;;;;;14.67;100.00;101172.75;111585;1201;60285;-81
2021/08/21 04:29:03;;;;;;;9.10;7.10;;;;;;;14.69;100.00;101174.05;111481;1201;60279;-81
2021/08/21 04:31:30;;;;;;;8.30;6.30;;;;;;;14.73;100.00;101172.42;111502;1201;60286;-82
2021/08/21 04:33:56;;;;;;;8.20;6.20;;;;;;;14.76;100.00;101177.92;111485;1201;74059;-81
2021/08/21 04:36:23;;;;;;;10.10;6.20;;;;;;;14.81;100.00;101178.83;111451;1201;60282;-81
2021/08/21 04:38:49;;;;;;;10.10;6.40;;;;;;;14.87;100.00;101182.39;111580;1201;61355;-82
2021/08/21 04:41:16;;;;;;;6.90;5.50;;;;;;;14.89;100.00;101180.34;111386;1196;60716;-80
2021/08/21 04:43:43;;;;;;;10.90;6.80;;;;;;;14.91;100.00;101178.69;111564;1201;72154;-81
2021/08/21 04:46:10;;;;;;;8.60;6.70;;;;;;;14.94;100.00;101184.14;111465;1201;60330;-80
2021/08/21 04:48:36;;;;;;;8.60;6.40;;;;;;;14.96;100.00;101185.55;111531;1201;61603;-82
2021/08/21 04:51:03;;;;;;;7.60;5.90;;;;;;;15.00;100.00;101185.06;111433;1201;60241;-82
2021/08/21 04:53:29;;;;;;;6.80;5.40;;;;;;;15.02;100.00;101181.74;111440;1201;60457;-81
2021/08/21 04:55:56;;;;;;;7.00;5.30;;;;;;;15.05;100.00;101183.16;111586;1201;60218;-83
2021/08/21 04:58:23;;;;;;;6.70;5.30;;;;;;;15.05;100.00;101187.19;111603;1201;60286;-81
2021/08/21 05:00:49;;;;;;;7.50;5.10;;;;;;;15.06;100.00;101186.76;111694;1201;62579;-80
2021/08/21 05:03:16;;;;;;;6.40;4.90;;;;;;;15.07;100.00;101191.20;111343;1201;60375;-80
2021/08/21 05:05:44;;;;;;;7.20;5.10;;;;;;;15.09;100.00;101194.92;111419;1201;75086;-81
2021/08/21 05:08:10;;;;;;;7.40;5.30;;;;;;;15.09;100.00;101196.86;111398;1201;71968;-80
2021/08/21 05:10:37;;;;;;;5.70;3.90;;;;;;;15.11;100.00;101197.23;111351;1201;72536;-80
2021/08/21 05:13:03;;;;;;;8.10;5.30;;;;;;;15.12;100.00;101198.55;111336;1201;60230;-82
2021/08/21 05:15:33;;;;;;;10.50;5.80;;;;;;;15.11;100.00;101198.83;111399;1201;60362;-82
2021/08/21 05:18:02;;;;;;;7.80;6.40;;;;;;;15.12;100.00;101200.09;111351;1197;73753;-82
2021/08/21 05:20:40;;;;;;;10.50;7.70;;;;;;;15.16;100.00;101202.95;111626;1201;71293;-80
2021/08/21 05:23:16;;;;;;;8.00;5.70;;;;;;;15.21;100.00;101204.06;111499;1201;73001;-81
2021/08/21 05:25:46;;;;;;;7.80;6.00;;;;;;;15.25;100.00;101206.61;111512;1195;61573;-82
2021/08/21 05:28:14;;;;;;;9.60;7.10;;;;;;;15.28;100.00;101204.98;111430;1201;60183;-82
2021/08/21 05:30:41;;;;;;;8.10;6.40;;;;;;;15.34;100.00;101205.92;111535;1195;73685;-81
2021/08/21 05:33:09;;;;;;;10.00;7.10;;;;;;;15.38;100.00;101203.21;111484;1202;71683;-81
2021/08/21 05:35:37;;;;;;;8.50;6.80;;;;;;;15.42;100.00;101207.20;111418;1201;72252;-82
2021/08/21 05:38:05;;;;;;;9.70;7.20;;;;;;;15.45;100.00;101208.00;111169;1194;62167;-81
2021/08/21 05:40:32;;;;;;;8.50;6.70;;;;;;;15.48;100.00;101207.81;111416;1201;60140;-81
2021/08/21 05:42:59;;;;;;;9.10;6.70;;;;;;;15.53;100.00;101209.58;111519;1201;73734;-82
2021/08/21 05:45:27;;;;;;;8.80;7.30;;;;;;;15.57;100.00;101207.34;111389;1196;71936;-81
2021/08/21 05:47:54;;;;;;;8.70;6.50;;;;;;;15.62;100.00;101209.52;111432;1201;72539;-82
2021/08/21 05:50:22;;;;;;;9.20;6.80;;;;;;;15.67;100.00;101209.58;111409;1194;62563;-81
2021/08/21 05:52:50;;;;;;;8.90;5.60;;;;;;;15.73;100.00;101213.34;111509;1195;60491;-82
2021/08/21 05:55:21;;;;;;;11.40;7.20;;;;;;;15.76;99.98;101212.91;112088;1198;73484;-81
2021/08/21 05:57:55;;;;;;;11.10;8.20;;;;;;;15.81;99.93;101213.16;111850;1202;70990;-81
2021/08/21 06:00:24;;;;;;;9.40;6.30;;;;;;;15.90;99.98;101215.52;111414;1195;71650;-80
2021/08/21 06:02:51;;;;;;;9.60;7.40;;;;;;;16.02;99.94;101213.30;111353;1202;61699;-82
2021/08/21 06:05:18;;;;;;;11.60;7.70;;;;;;;16.14;99.67;101214.52;111231;1201;61401;-82
2021/08/21 06:07:45;;;;;;;12.70;7.90;;;;;;;16.25;99.40;101212.95;111280;1200;73713;-81
2021/08/21 06:10:11;;;;;;;10.20;7.60;;;;;;;16.39;99.49;101218.13;111334;1201;61014;-82
2021/08/21 06:12:38;;;;;;;11.80;8.50;;;;;;;16.50;98.59;101222.90;111362;1195;60212;-83
2021/08/21 06:15:05;;;;;;;12.90;8.80;;;;;;;16.61;98.40;101225.29;111236;1201;60195;-84
2021/08/21 06:17:32;;;;;;;11.40;8.70;;;;;;;16.69;98.02;101230.88;111165;1200;61587;-84
2021/08/21 06:19:58;;;;;;;12.80;10.90;;;;;;;16.78;97.82;101229.66;111149;1201;73763;-83
2021/08/21 06:22:25;;;;;;;10.50;6.70;;;;;;;16.83;96.97;101223.14;111179;1201;70582;-82
2021/08/21 06:24:52;;;;;;;12.10;7.10;;;;;;;16.86;96.24;101225.21;111293;1195;60833;-81
2021/08/21 06:27:19;;;;;;;12.70;9.30;;;;;;;16.90;96.29;101220.23;111435;1201;61931;-80
2021/08/21 06:29:46;;;;;;;12.70;8.80;;;;;;;16.97;96.45;101222.63;111311;1195;61539;-81
2021/08/21 06:32:12;;;;;;;13.80;9.80;;;;;;;17.07;96.27;101225.73;111243;1197;60187;-82
2021/08/21 06:34:39;;;;;;;11.00;7.40;;;;;;;17.20;96.03;101227.15;111365;1201;60270;-81
2021/08/21 06:37:05;;;;;;;12.00;8.80;;;;;;;17.30;94.80;101225.59;111322;1201;60321;-82
2021/08/21 06:39:33;;;;;;;11.70;8.40;;;;;;;17.41;94.61;101230.60;111393;1201;60154;-82
2021/08/21 06:42:02;;;;;;;12.70;9.70;;;;;;;17.51;93.97;101226.85;111447;1201;60719;-81
2021/08/21 06:44:29;;;;;;;10.80;7.90;;;;;;;17.62;93.09;101227.30;111424;1201;74678;-81
2021/08/21 06:46:56;;;;;;;13.50;9.80;;;;;;;17.62;92.41;101221.10;111436;1201;70899;-82
2021/08/21 06:49:23;;;;;;;14.70;10.50;;;;;;;17.66;92.08;101217.59;111553;1201;72955;-82
2021/08/21 06:51:50;;;;;;;13.30;9.00;;;;;;;17.73;92.04;101215.79;111564;1195;61551;-81
2021/08/21 06:54:16;;;;;;;13.10;7.80;;;;;;;17.86;91.84;101221.74;111470;1201;60163;-82
2021/08/21 06:56:43;;;;;;;13.70;9.40;;;;;;;18.02;91.33;101221.25;111470;1201;74807;-83
2021/08/21 06:59:09;;;;;;;15.20;9.30;;;;;;;18.16;90.77;101219.34;111528;1201;60279;-82
2021/08/21 07:01:39;;;;;;;14.60;9.20;;;;;;;18.30;90.18;101217.50;111387;1201;60734;-82
2021/08/21 07:04:06;;;;;;;12.70;9.10;;;;;;;18.47;89.36;101217.38;111382;1201;61988;-83
2021/08/21 07:06:32;;;;;;;13.80;9.80;;;;;;;18.63;88.89;101214.61;111338;1194;60253;-82
2021/08/21 07:08:59;;;;;;;12.40;8.10;;;;;;;18.78;88.23;101216.90;111424;1195;73881;-82
2021/08/21 07:11:25;;;;;;;15.70;10.30;;;;;;;18.87;87.84;101221.48;111391;1201;60292;-82
2021/08/21 07:13:52;;;;;;;14.30;9.90;;;;;;;18.97;87.73;101219.42;111413;1201;73727;-80
2021/08/21 07:16:19;;;;;;;7.50;5.50;;;;;;;19.04;87.25;101220.63;111582;1201;62274;-81
2021/08/21 07:18:46;;;;;;;12.90;8.70;;;;;;;19.01;86.61;101217.55;111432;1201;61243;-81
2021/08/21 07:21:12;;;;;;;15.80;10.70;;;;;;;18.98;87.23;101218.84;111459;1201;60289;-82
2021/08/21 07:23:39;;;;;;;14.40;10.60;;;;;;;19.02;87.41;101218.06;111327;1195;61476;-81
2021/08/21 07:26:06;;;;;;;12.40;9.60;;;;;;;19.03;86.82;101216.65;111395;1201;61394;-82
2021/08/21 07:28:33;;;;;;;16.70;11.10;;;;;;;19.06;86.96;101220.80;112342;1201;62273;-82
2021/08/21 07:31:01;;;;;;;16.10;10.00;;;;;;;19.16;87.18;101220.73;114471;1195;59944;-82
2021/08/21 07:33:28;;;;;;;16.80;9.80;;;;;;;19.24;86.73;101222.24;113044;1201;73623;-82
2021/08/21 07:35:55;;;;;;;14.70;10.20;;;;;;;19.34;86.39;101224.64;112199;1194;71759;-82
2021/08/21 07:38:22;;;;;;;12.60;9.60;;;;;;;19.43;85.84;101223.21;111466;1195;72867;-73
2021/08/21 07:40:50;;;;;;;13.30;9.00;;;;;;;19.49;85.64;101225.66;111014;1201;60324;-75
2021/08/21 07:43:17;;;;;;;13.70;10.00;;;;;;;19.56;84.58;101228.80;110998;1195;60981;-73
2021/08/21 07:45:46;;;;;;;14.50;10.60;;;;;;;19.62;84.33;101231.65;111074;1201;75056;-73
2021/08/21 07:48:17;;;;;;;13.80;9.50;;;;;;;19.71;83.93;101237.29;110963;1196;72301;-75
2021/08/21 07:50:45;;;;;;;16.30;11.10;;;;;;;19.81;83.96;101243.04;111079;1202;72279;-74
2021/08/21 07:53:12;;;;;;;15.20;10.80;;;;;;;19.96;83.74;101239.98;110780;1203;61656;-74
2021/08/21 07:55:40;;;;;;;13.70;10.40;;;;;;;20.07;82.79;101245.48;110954;1201;61521;-73
2021/08/21 07:58:06;;;;;;;12.80;9.10;;;;;;;20.09;82.10;101245.87;110959;1201;74274;-75
2021/08/21 08:00:34;;;;;;;14.60;10.60;;;;;;;20.10;81.61;101247.23;111027;1202;60274;-72
2021/08/21 08:03:01;;;;;;;15.70;10.70;;;;;;;20.13;81.85;101248.35;111152;1195;72863;-73
2021/08/21 08:05:27;;;;;;;14.90;10.10;;;;;;;20.23;81.99;101248.37;111125;1195;60357;-73
2021/08/21 08:07:54;;;;;;;13.40;10.20;;;;;;;20.37;81.93;101247.48;111004;1201;60205;-73
2021/08/21 08:10:22;;;;;;;15.30;9.30;;;;;;;20.53;81.40;101246.25;110879;1195;74756;-74
2021/08/21 08:12:49;;;;;;;13.70;9.80;;;;;;;20.75;80.70;101245.41;110993;1201;71065;-74
2021/08/21 08:15:17;;;;;;;14.60;11.20;;;;;;;21.02;80.75;101244.92;110928;1201;73556;-72
2021/08/21 08:17:43;;;;;;;17.30;10.40;;;;;;;21.31;79.31;101245.20;111260;1201;61580;-74
2021/08/21 08:20:10;;;;;;;12.80;9.20;;;;;;;21.48;78.17;101247.70;111226;1202;60174;-74
2021/08/21 08:22:37;;;;;;;15.50;11.10;;;;;;;21.56;76.48;101244.73;111192;1201;74225;-74
2021/08/21 08:25:04;;;;;;;14.80;11.00;;;;;;;21.56;74.84;101248.21;111180;1201;71470;-75
2021/08/21 08:27:31;;;;;;;13.40;9.50;;;;;;;21.58;74.69;101247.60;111256;1201;73564;-74
2021/08/21 08:29:58;;;;;;;13.60;10.60;;;;;;;21.68;74.93;101247.05;111206;1201;60294;-74
2021/08/21 08:32:24;;;;;;;10.50;8.00;;;;;;;21.78;74.30;101245.83;111206;1201;60448;-74
2021/08/21 08:34:51;;;;;;;16.00;11.10;;;;;;;21.81;72.69;101248.86;111178;1195;60205;-74
2021/08/21 08:37:17;;;;;;;15.40;12.30;;;;;;;21.82;72.74;101246.73;111201;1195;71510;-74
2021/08/21 08:39:44;;;;;;;15.20;12.20;;;;;;;21.86;72.83;101245.31;111231;1201;72523;-74
2021/08/21 08:42:10;;;;;;;14.90;11.10;;;;;;;21.93;73.21;101248.26;111165;1201;60718;-75
2021/08/21 08:44:43;;;;;;;14.10;10.00;;;;;;;21.99;73.27;101253.70;111057;1201;60234;-75
2021/08/21 08:47:10;;;;;;;15.30;11.00;;;;;;;22.01;72.32;101253.25;111011;1201;74593;-75
2021/08/21 08:49:37;;;;;;;14.80;10.80;;;;;;;22.02;72.75;101257.48;111212;1201;71149;-75
2021/08/21 08:52:07;;;;;;;15.70;11.60;;;;;;;22.04;71.14;101258.06;111470;1201;73762;-76
2021/08/21 08:54:33;;;;;;;15.70;10.80;;;;;;;22.05;72.24;101259.61;110949;1201;61131;-75
2021/08/21 08:57:00;;;;;;;11.90;9.00;;;;;;;22.25;72.95;101257.91;111045;1201;60567;-75
2021/08/21 08:59:27;;;;;;;17.30;11.40;;;;;;;22.44;72.35;101259.56;111204;1201;73774;-75
2021/08/21 09:01:53;;;;;;;12.80;9.80;;;;;;;22.60;70.99;101260.95;111271;1193;71572;-75
2021/08/21 09:04:23;;;;;;;11.70;8.80;;;;;;;22.60;69.85;101261.71;111303;1201;60300;-76
2021/08/21 09:06:51;;;;;;;11.50;9.00;;;;;;;22.50;69.16;101261.03;111286;1201;61515;-75
2021/08/21 09:09:20;;;;;;;10.50;7.80;;;;;;;22.38;69.78;101263.34;111254;1202;61629;-76
2021/08/21 09:11:51;;;;;;;11.80;8.90;;;;;;;22.33;70.43;101264.00;111235;1201;74805;-76
2021/08/21 09:14:30;;;;;;;13.70;9.60;;;;;;;22.42;70.54;101261.99;111205;1201;70699;-75
2021/08/21 09:17:18;;;;;;;11.60;7.30;;;;;;;22.53;70.68;101262.12;110945;1196;72552;-75
2021/08/21 09:19:46;;;;;;;13.10;9.00;;;;;;;22.71;69.21;101260.99;111054;1195;60253;-74
2021/08/21 09:22:13;;;;;;;14.30;9.00;;;;;;;22.81;68.90;101255.90;110919;1201;61198;-74
2021/08/21 09:24:42;;;;;;;14.80;10.30;;;;;;;22.85;67.58;101256.05;110978;1201;73195;-75
2021/08/21 09:27:23;;;;;;;10.40;8.10;;;;;;;22.88;68.17;101255.58;111017;1201;72287;-75
2021/08/21 09:30:05;;;;;;;7.80;6.20;;;;;;;23.02;68.85;101255.23;111031;1201;72462;-75
2021/08/21 09:32:32;;;;;;;9.30;7.50;;;;;;;23.16;67.28;101250.73;110918;1201;61959;-75
2021/08/21 09:35:10;;;;;;;8.80;7.40;;;;;;;23.31;67.90;101248.04;111145;1195;60253;-75
2021/08/21 09:37:48;;;;;;;7.30;5.60;;;;;;;23.49;67.36;101248.64;111425;1195;73478;-75
2021/08/21 09:40:36;;;;;;;12.20;9.00;;;;;;;23.62;64.94;101253.34;111369;1201;71276;-73
2021/08/21 09:43:18;;;;;;;11.90;8.80;;;;;;;23.78;64.33;101253.74;111110;1201;73521;-74
2021/08/21 09:45:45;;;;;;;13.70;9.50;;;;;;;23.93;63.35;101248.20;110933;1195;60432;-73
2021/08/21 09:48:12;;;;;;;11.40;8.70;;;;;;;24.13;62.72;101241.75;110984;1201;61219;-75
2021/08/21 09:50:40;;;;;;;13.80;9.30;;;;;;;24.26;61.82;101235.14;110962;1201;74420;-75
2021/08/21 09:53:09;;;;;;;13.20;9.20;;;;;;;24.44;63.14;101239.40;111243;1201;72975;-76
2021/08/21 09:55:37;;;;;;;9.60;7.90;;;;;;;24.73;63.26;101239.73;110930;1200;72272;-76
2021/08/21 09:58:20;;;;;;;9.60;7.90;;;;;;;24.99;61.92;101232.26;110914;1195;61899;-75
2021/08/21 10:00:48;;;;;;;10.00;7.70;;;;;;;25.28;60.84;101233.32;110987;1201;60193;-75
2021/08/21 10:03:15;;;;;;;8.30;6.60;;;;;;;25.53;59.42;101231.27;111109;1201;74708;-75
2021/08/21 10:05:48;;;;;;;8.60;6.20;;;;;;;25.79;59.75;101233.06;110854;1202;72065;-74
2021/08/21 10:08:15;;;;;;;13.00;8.50;;;;;;;26.01;56.88;101235.91;110896;1201;72573;-76
2021/08/21 10:10:49;;;;;;;10.90;8.50;;;;;;;26.11;56.02;101230.67;111041;1201;60316;-76
2021/08/21 10:13:27;;;;;;;9.70;6.90;;;;;;;26.18;56.08;101230.80;111059;1201;60380;-74
2021/08/21 10:15:56;;;;;;;12.00;8.10;;;;;;;26.20;55.57;101231.46;111069;1201;73390;-74
2021/08/21 10:18:24;;;;;;;14.00;8.50;;;;;;;26.29;55.15;101230.57;110970;1201;72239;-76
2021/08/21 10:20:50;;;;;;;12.00;9.50;;;;;;;26.37;54.77;101230.55;111006;1201;73397;-76
2021/08/21 10:23:23;;;;;;;9.90;7.10;;;;;;;26.42;54.08;101225.88;111193;1201;61056;-75
2021/08/21 10:26:04;;;;;;;8.20;7.10;;;;;;;26.42;53.97;101224.08;111264;1201;60259;-75
2021/08/21 10:28:38;;;;;;;12.10;9.90;;;;;;;26.39;53.40;101222.83;111104;1201;73722;-75
2021/08/21 10:31:06;;;;;;;10.10;7.30;;;;;;;26.33;53.80;101224.98;111200;1201;71012;-74
2021/08/21 10:33:55;;;;;;;11.10;9.90;;;;;;;26.18;53.61;101224.34;111038;1201;72398;-76
2021/08/21 10:36:58;;;;;;;13.20;10.70;;;;;;;25.81;53.40;101229.32;111029;1201;60554;-76
2021/08/21 10:39:30;;;;;;;12.40;8.90;;;;;;;25.46;54.47;101224.59;110963;1202;60363;-75
2021/08/21 10:41:57;;;;;;;9.80;8.70;;;;;;;25.36;56.00;101228.55;111310;1201;74749;-74
2021/08/21 10:44:47;;;;;;;11.10;9.60;;;;;;;25.35;54.95;101230.34;111225;1202;71774;-75
2021/08/21 10:47:33;;;;;;;9.40;8.00;;;;;;;25.25;55.15;101229.94;111123;1201;73694;-75
2021/08/21 10:50:11;;;;;;;11.10;9.90;;;;;;;25.25;56.16;101229.13;111093;1201;61642;-75
2021/08/21 10:52:44;;;;;;;12.00;10.50;;;;;;;25.36;55.83;101229.26;111054;1201;61047;-73
2021/08/21 10:55:15;;;;;;;13.10;10.20;;;;;;;25.36;54.49;101230.95;111228;1201;73995;-74
2021/08/21 10:58:02;;;;;;;12.40;9.40;;;;;;;25.35;55.38;101226.64;111232;1201;71051;-74
2021/08/21 11:00:37;;;;;;;9.20;8.00;;;;;;;25.35;55.96;101225.61;111264;1201;72522;-75
2021/08/21 11:03:16;;;;;;;11.00;8.50;;;;;;;25.38;56.09;101216.67;110967;1201;61370;-75
2021/08/21 11:05:52;;;;;;;11.30;9.70;;;;;;;25.30;56.01;101222.70;111129;1195;60414;-75
2021/08/21 11:08:20;;;;;;;10.90;8.60;;;;;;;25.27;55.98;101220.89;111216;1201;73710;-75
2021/08/21 11:10:47;;;;;;;11.30;9.80;;;;;;;25.21;55.05;101218.98;111297;1201;70951;-75
2021/08/21 11:13:58;;;;;;;11.60;7.90;;;;;;;25.13;55.18;101220.54;111144;1195;73560;-75
2021/08/21 11:16:51;;;;;;;10.00;8.20;;;;;;;25.20;55.94;101223.05;111341;1201;60266;-73